Allen, South Dakota
Current Conditions -  °F | °C
As of 3:52 PM on Sunday 23 Nov 2014 (Local Time) from KIEN Reporting Station
Overcast Overcast  
Wind Chill: 30°   Ceiling: 5500
Heat Index: 38°   Visibility: 10mi
Dew Point: 21°   Wind: 12mph
Humidity: 51%   Direction: 330°NNW
Pressure: 29.75"   Gusts: NA
Location:  43.28°N, 101.93°W
Report Text: KIEN 232252Z AUTO 33010KT 10SM BKN055 OVC070 03/M06 A2975 RMK AO2 SNE2156 SLP091 P0000 T00331061
Loading
Personal Weather Stations






























Interactive Weather Map New forecast layout! Learn more

10-Day Weather Forecast

Advertisements
Track Severe Weather on mobile